CheckWX is a tool to help pilots better visualize weather data.  It is not intended as a substitute for an official pre-flight weather briefing.

03:00:19 UTC

EFUT METAR
Utti Air Base Airport
Utti / Valkeala, Finland
Current

40 mins ago

EFUT 190220Z AUTO 23004KT CAVOK 14/11 Q1014
Observed
Jun-19 @ 02:20 UTC
Wind
  • 230° at 4 KTS
Visibility
10,000+ meters
Flight Rules
VFR
Cloud Levels
  • Clear skies
Temperature
14°C / 57°F
Dewpoint
11°C / 52°F
Humidity
82%
Altimeter
29.94" Hg
Pressure
1013.92 hPa
Previous

1 hour ago

EFUT 190150Z AUTO 23004KT CAVOK 14/11 Q1014
Observed
Jun-19 @ 01:50 UTC
Wind
  • 230° at 4 KTS
Visibility
10,000+ meters
Flight Rules
VFR
Cloud Levels
  • Clear skies
Temperature
14°C / 57°F
Dewpoint
11°C / 52°F
Humidity
82%
Altimeter
29.94" Hg
Pressure
1013.92 hPa
Previous

2 hours ago

EFUT 190120Z AUTO 22004KT CAVOK 15/11 Q1014
Observed
Jun-19 @ 01:20 UTC
Wind
  • 220° at 4 KTS
Visibility
10,000+ meters
Flight Rules
VFR
Cloud Levels
  • Clear skies
Temperature
15°C / 59°F
Dewpoint
11°C / 52°F
Humidity
77%
Altimeter
29.94" Hg
Pressure
1013.92 hPa